地図

経路データ

SID SEASON NUMBER BASIN SUBBASIN NAME ISO_TIME NATURE LAT LON WMO_WIND WMO_PRES WMO_AGENCY TRACK_TYPE DIST2LAND LANDFALL IFLAG USA_AGENCY USA_ATCF_ID USA_LAT USA_LON USA_RECORD USA_STATUS USA_WIND USA_PRES USA_SSHS USA_R34_NE USA_R34_SE USA_R34_SW USA_R34_NW USA_R50_NE USA_R50_SE USA_R50_SW USA_R50_NW USA_R64_NE USA_R64_SE USA_R64_SW USA_R64_NW USA_POCI USA_ROCI USA_RMW USA_EYE TOKYO_LAT TOKYO_LON TOKYO_GRADE TOKYO_WIND TOKYO_PRES TOKYO_R50_DIR TOKYO_R50_LONG TOKYO_R50_SHORT TOKYO_R30_DIR TOKYO_R30_LONG TOKYO_R30_SHORT TOKYO_LAND CMA_LAT CMA_LON CMA_CAT CMA_WIND CMA_PRES HKO_LAT HKO_LON HKO_CAT HKO_WIND HKO_PRES NEWDELHI_LAT NEWDELHI_LON NEWDELHI_GRADE NEWDELHI_WIND NEWDELHI_PRES NEWDELHI_CI NEWDELHI_DP NEWDELHI_POCI REUNION_LAT REUNION_LON REUNION_TYPE REUNION_WIND REUNION_PRES REUNION_TNUM REUNION_CI REUNION_RMW REUNION_R34_NE REUNION_R34_SE REUNION_R34_SW REUNION_R34_NW REUNION_R50_NE REUNION_R50_SE REUNION_R50_SW REUNION_R50_NW REUNION_R64_NE REUNION_R64_SE REUNION_R64_SW REUNION_R64_NW BOM_LAT BOM_LON BOM_TYPE BOM_WIND BOM_PRES BOM_TNUM BOM_CI BOM_RMW BOM_R34_NE BOM_R34_SE BOM_R34_SW BOM_R34_NW BOM_R50_NE BOM_R50_SE BOM_R50_SW BOM_R50_NW BOM_R64_NE BOM_R64_SE BOM_R64_SW BOM_R64_NW BOM_ROCI BOM_POCI BOM_EYE BOM_POS_METHOD BOM_PRES_METHOD NADI_LAT NADI_LON NADI_CAT NADI_WIND NADI_PRES WELLINGTON_LAT WELLINGTON_LON WELLINGTON_WIND WELLINGTON_PRES DS824_LAT DS824_LON DS824_STAGE DS824_WIND DS824_PRES TD9636_LAT TD9636_LON TD9636_STAGE TD9636_WIND TD9636_PRES TD9635_LAT TD9635_LON TD9635_WIND TD9635_PRES TD9635_ROCI NEUMANN_LAT NEUMANN_LON NEUMANN_CLASS NEUMANN_WIND NEUMANN_PRES MLC_LAT MLC_LON MLC_CLASS MLC_WIND MLC_PRES USA_GUST BOM_GUST BOM_GUST_PER REUNION_GUST REUNION_GUST_PER USA_SEAHGT USA_SEARAD_NE USA_SEARAD_SE USA_SEARAD_SW USA_SEARAD_NW STORM_SPEED STORM_DIR
1971280N11270 1971 133 EP MM PRISCILLA 1971-10-06 12:00:00 TS 10.5000 -89.9000 30 hurdat_epa main 325 325 O________OO___ hurdat_epa EP161971 10.5000 -89.9000 TD 30 -1 10.5000 -89.9000 TC 30 10.5000 -89.9000 1 10 281
1971280N11270 1971 133 EP MM PRISCILLA 1971-10-06 15:00:00 TS 10.5960 -90.4077 main 331 328 P________PP___ EP161971 10.5902 -90.4175 TD 30 -1 10.5902 -90.4175 TC 30 10.6194 -90.3685 1 10 282
1971280N11270 1971 133 EP MM PRISCILLA 1971-10-06 18:00:00 TS 10.7081 -90.8860 30 hurdat_epa main 335 329 O________OP___ hurdat_epa EP161971 10.7000 -90.9000 TD 30 -1 10.7000 -90.9000 TC 30 10.7407 -90.8297 1 9 286
1971280N11270 1971 133 EP MM PRISCILLA 1971-10-06 21:00:00 TS 10.8473 -91.3132 main 343 326 P________PP___ EP161971 10.8424 -91.3225 TD 30 -1 10.8424 -91.3225 TC 30 10.8667 -91.2761 1 9 290
1971280N11270 1971 133 EP MM PRISCILLA 1971-10-07 00:00:00 TS 11.0000 -91.7000 30 hurdat_epa main 327 318 O________OO___ hurdat_epa EP161971 11.0000 -91.7000 TD 30 -1 11.0000 -91.7000 TC 30 11.0000 -91.7000 1 8 292
1971280N11270 1971 133 EP MM PRISCILLA 1971-10-07 03:00:00 TS 11.1484 -92.0594 main 325 310 P________PP___ EP161971 11.1499 -92.0501 TD 30 -1 11.1499 -92.0501 TC 30 11.1425 -92.0967 1 8 293
1971280N11270 1971 133 EP MM PRISCILLA 1971-10-07 06:00:00 TS 11.2984 -92.4145 30 hurdat_epa main 314 313 O________OP___ hurdat_epa EP161971 11.3000 -92.4000 TD 30 -1 11.3000 -92.4000 TC 30 11.2921 -92.4726 1 8 292
1971280N11270 1971 133 EP MM PRISCILLA 1971-10-07 09:00:00 TS 11.4492 -92.8254 main 323 314 P________PP___ EP161971 11.4501 -92.8225 TD 30 -1 11.4501 -92.8225 TC 30 11.4457 -92.8373 1 8 291
1971280N11270 1971 133 EP MM PRISCILLA 1971-10-07 12:00:00 TS 11.6000 -93.2000 30 hurdat_epa main 328 323 O________OO___ hurdat_epa EP161971 11.6000 -93.2000 TD 30 -1 11.6000 -93.2000 TC 30 11.6000 -93.2000 2 7 297
1971280N11270 1971 133 EP MM PRISCILLA 1971-10-07 15:00:00 TS 11.7498 -93.4196 main 329 319 P________PP___ EP161971 11.7497 -93.3777 TD 35 0 11.7497 -93.3777 TC 35 11.7500 -93.5872 2 6 303
1971280N11270 1971 133 EP MM PRISCILLA 1971-10-07 18:00:00 TS 11.9000 -93.6745 40 hurdat_epa main 329 328 O________OP___ hurdat_epa EP161971 11.9000 -93.6000 TS 40 0 11.9000 -93.6000 TC 40 11.9000 -93.9726 2 8 292
1971280N11270 1971 133 EP MM PRISCILLA 1971-10-07 21:00:00 TS 12.0503 -94.1773 main 345 345 P________PP___ EP161971 12.0503 -94.1349 TS 40 0 12.0503 -94.1349 TC 40 12.0500 -94.3466 2 10 287
1971280N11270 1971 133 EP MM PRISCILLA 1971-10-08 00:00:00 TS 12.2000 -94.7000 40 hurdat_epa main 373 373 O________OO___ hurdat_epa EP161971 12.2000 -94.7000 TS 40 0 12.2000 -94.7000 TC 40 12.2000 -94.7000 2 9 290
1971280N11270 1971 133 EP MM PRISCILLA 1971-10-08 03:00:00 TS 12.3498 -95.0304 main 388 371 P________PP___ EP161971 12.3498 -95.0376 TS 40 0 12.3498 -95.0376 TC 40 12.3496 -95.0015 2 7 297
1971280N11270 1971 133 EP MM PRISCILLA 1971-10-08 06:00:00 TS 12.4999 -95.2971 40 hurdat_epa main 371 352 O________OP___ hurdat_epa EP161971 12.5000 -95.3000 TS 40 0 12.5000 -95.3000 TC 40 12.4994 -95.2854 2 6 299
1971280N11270 1971 133 EP MM PRISCILLA 1971-10-08 09:00:00 TS 12.6498 -95.5834 main 352 322 P________PP___ EP161971 12.6499 -95.5851 TS 40 0 12.6499 -95.5851 TC 40 12.6496 -95.5765 2 7 297
1971280N11270 1971 133 EP MM PRISCILLA 1971-10-08 12:00:00 TS 12.8000 -95.9000 40 hurdat_epa main 322 304 O________OO___ hurdat_epa EP161971 12.8000 -95.9000 TS 40 0 12.8000 -95.9000 TC 40 12.8000 -95.9000 3 7 294
1971280N11270 1971 133 EP MM PRISCILLA 1971-10-08 15:00:00 TS 12.9484 -96.2799 main 304 279 P________PP___ EP161971 12.9500 -96.2775 TS 55 0 12.9500 -96.2775 TC 55 12.9419 -96.2892 3 8 291
1971280N11270 1971 133 EP MM PRISCILLA 1971-10-08 18:00:00 TS 13.0970 -96.7026 70 984 hurdat_epa main 280 270 O________OP___ hurdat_epa EP161971 13.1000 -96.7000 HU 70 984 1 13.1000 -96.7000 TC 70 984 13.0851 -96.7128 3 9 289
1971280N11270 1971 133 EP MM PRISCILLA 1971-10-08 21:00:00 TS 13.2411 -97.1451 main 274 264 P________PP___ EP161971 13.2425 -97.1426 HU 70 1 13.2425 -97.1426 TC 70 13.2356 -97.1549 3 9 289
1971280N11270 1971 133 EP MM PRISCILLA 1971-10-09 00:00:00 TS 13.4000 -97.6000 70 hurdat_epa main 268 268 O________OO___ hurdat_epa EP161971 13.4000 -97.6000 HU 70 1 13.4000 -97.6000 TC 70 13.4000 -97.6000 4 9 292
1971280N11270 1971 133 EP MM PRISCILLA 1971-10-09 03:00:00 TS 13.5910 -98.0462 main 268 254 P________PP___ EP161971 13.5925 -98.0575 HU 70 1 13.5925 -98.0575 TC 70 13.5851 -98.0009 4 9 295
1971280N11270 1971 133 EP MM PRISCILLA 1971-10-09 06:00:00 TS 13.7968 -98.4811 70 hurdat_epa main 257 248 O________OP___ hurdat_epa EP161971 13.8000 -98.5000 HU 70 1 13.8000 -98.5000 TC 70 13.7842 -98.4054 4 9 297
1971280N11270 1971 133 EP MM PRISCILLA 1971-10-09 09:00:00 TS 13.9980 -98.8686 main 253 243 P________PP___ EP161971 13.9997 -98.8777 HU 75 1 13.9997 -98.8777 TC 75 13.9912 -98.8323 4 9 297
1971280N11270 1971 133 EP MM PRISCILLA 1971-10-09 12:00:00 TS 14.2000 -99.3000 80 hurdat_epa main 246 239 O________OO___ hurdat_epa EP161971 14.2000 -99.3000 HU 80 1 14.2000 -99.3000 TC 80 14.2000 -99.3000 4 11 292
1971280N11270 1971 133 EP MM PRISCILLA 1971-10-09 15:00:00 TS 14.3969 -99.8693 main 254 243 P________PP___ EP161971 14.4001 -99.8775 HU 85 2 14.4001 -99.8775 TC 85 14.3839 -99.8364 4 12 289
1971280N11270 1971 133 EP MM PRISCILLA 1971-10-09 18:00:00 TS 14.5940 -100.483 90 960 hurdat_epa main 250 248 O________OP___ hurdat_epa EP161971 14.6000 -100.500 HU 90 960 2 14.6000 -100.500 TC 90 960 14.5702 -100.413 4 12 289
1971280N11270 1971 133 EP MM PRISCILLA 1971-10-09 21:00:00 TS 14.7821 -101.048 main 254 254 P________PP___ EP161971 14.7848 -101.058 HU 90 2 14.7848 -101.058 TC 90 14.7713 -101.008 4 12 291
1971280N11270 1971 133 EP MM PRISCILLA 1971-10-10 00:00:00 TS 15.0000 -101.600 90 hurdat_epa main 260 247 O________OO___ hurdat_epa EP161971 15.0000 -101.600 HU 90 2 15.0000 -101.600 TC 90 15.0000 -101.600 4 12 295
1971280N11270 1971 133 EP MM PRISCILLA 1971-10-10 03:00:00 TS 15.2829 -102.156 main 252 248 P________PP___ EP161971 15.2849 -102.150 HU 90 2 15.2849 -102.150 TC 90 15.2752 -102.181 4 12 299
1971280N11270 1971 133 EP MM PRISCILLA 1971-10-10 06:00:00 TS 15.5955 -102.710 90 hurdat_epa main 255 243 O________OP___ hurdat_epa EP161971 15.6000 -102.700 HU 90 2 15.6000 -102.700 TC 90 15.5775 -102.752 4 12 300
1971280N11270 1971 133 EP MM PRISCILLA 1971-10-10 09:00:00 TS 15.9042 -103.277 main 246 228 P________PP___ EP161971 15.9075 -103.273 HU 90 2 15.9075 -103.273 TC 90 15.8909 -103.297 4 12 300
1971280N11270 1971 133 EP MM PRISCILLA 1971-10-10 12:00:00 TS 16.2000 -103.800 90 hurdat_epa main 232 221 O________OO___ hurdat_epa EP161971 16.2000 -103.800 HU 90 2 16.2000 -103.800 TC 90 16.2000 -103.800 4 11 301
1971280N11270 1971 133 EP MM PRISCILLA 1971-10-10 15:00:00 TS 16.4546 -104.233 main 214 212 P________PP___ EP161971 16.4498 -104.223 HU 100 3 16.4498 -104.223 TC 100 16.4737 -104.272 4 9 303
1971280N11270 1971 133 EP MM PRISCILLA 1971-10-10 18:00:00 TS 16.7084 -104.620 110 951 hurdat_epa main 213 208 O________OP___ hurdat_epa EP161971 16.7000 -104.600 HU 110 951 3 16.7000 -104.600 TC 110 951 16.7421 -104.698 4 9 305
1971280N11270 1971 133 EP MM PRISCILLA 1971-10-10 21:00:00 TS 16.9969 -105.027 main 215 215 P________PP___ EP161971 16.9925 -105.015 HU 110 3 16.9925 -105.015 TC 110 17.0145 -105.075 4 10 308
1971280N11270 1971 133 EP MM PRISCILLA 1971-10-11 00:00:00 TS 17.3000 -105.400 110 hurdat_epa main 221 202 O________OO___ hurdat_epa EP161971 17.3000 -105.400 HU 110 3 17.3000 -105.400 TC 110 17.3000 -105.400 4 9 312
1971280N11270 1971 133 EP MM PRISCILLA 1971-10-11 03:00:00 TS 17.5944 -105.732 main 202 192 P________PP___ EP161971 17.5925 -105.738 HU 110 3 17.5925 -105.738 TC 110 17.6022 -105.712 4 8 317
1971280N11270 1971 133 EP MM PRISCILLA 1971-10-11 06:00:00 TS 17.9039 -105.994 110 hurdat_epa main 192 176 O________OP___ hurdat_epa EP161971 17.9000 -106.000 HU 110 3 17.9000 -106.000 TC 110 17.9197 -105.970 4 8 327
1971280N11270 1971 133 EP MM PRISCILLA 1971-10-11 09:00:00 TS 18.2444 -106.184 main 184 161 P________PP___ EP161971 18.2424 -106.188 HU 110 3 18.2424 -106.188 TC 110 18.2523 -106.168 4 8 337
1971280N11270 1971 133 EP MM PRISCILLA 1971-10-11 12:00:00 TS 18.6000 -106.300 110 hurdat_epa main 161 145 O________OO___ hurdat_epa EP161971 18.6000 -106.300 HU 110 3 18.6000 -106.300 TC 110 18.6000 -106.300 4 7 345
1971280N11270 1971 133 EP MM PRISCILLA 1971-10-11 15:00:00 TS 18.9461 -106.381 main 146 122 P________PP___ EP161971 18.9425 -106.380 HU 95 2 18.9425 -106.380 TC 95 18.9604 -106.385 4 7 352
1971280N11270 1971 133 EP MM PRISCILLA 1971-10-11 18:00:00 TS 19.3070 -106.401 80 hurdat_epa main 122 99 O________OP___ hurdat_epa EP161971 19.3000 -106.400 HU 80 1 19.3000 -106.400 TC 80 19.3348 -106.405 4 8 0
1971280N11270 1971 133 EP MM PRISCILLA 1971-10-11 21:00:00 TS 19.7033 -106.379 main 99 71 P________PP___ EP161971 19.7000 -106.380 HU 80 1 19.7000 -106.380 TC 80 19.7167 -106.373 4 8 7
1971280N11270 1971 133 EP MM PRISCILLA 1971-10-12 00:00:00 TS 20.1000 -106.300 80 hurdat_epa main 71 52 O________OO___ hurdat_epa EP161971 20.1000 -106.300 HU 80 1 20.1000 -106.300 TC 80 20.1000 -106.300 4 8 14
1971280N11270 1971 133 EP MM PRISCILLA 1971-10-12 03:00:00 TS 20.4619 -106.184 main 53 47 P________PP___ EP161971 20.4575 -106.180 HU 75 1 20.4575 -106.180 TC 75 20.4795 -106.199 4 8 21
1971280N11270 1971 133 EP MM PRISCILLA 1971-10-12 06:00:00 TS 20.8087 -106.012 70 hurdat_epa main 51 43 O________OP___ hurdat_epa EP161971 20.8000 -106.000 HU 70 1 20.8000 -106.000 TC 70 20.8552 -106.078 4 8 27
1971280N11270 1971 133 EP MM PRISCILLA 1971-10-12 09:00:00 TS 21.1653 -105.798 main 53 15 P________PP___ EP161971 21.1574 -105.780 HU 65 1 21.1574 -105.780 TC 65 21.2283 -105.943 4 8 33
1971280N11270 1971 133 EP MM PRISCILLA 1971-10-12 12:00:00 TS 21.5059 -105.518 60 hurdat_epa main 15 0 O________OO___ hurdat_epa EP161971 21.5000 -105.500 TS 60 0 21.5000 -105.500 TC 60 21.6000 -105.800 6 9 41
1971280N11270 1971 133 EP MM PRISCILLA 1971-10-12 15:00:00 TS 21.8148 -105.187 main 0 0 P________P____ EP161971 21.8148 -105.187 TS 50 0 21.8148 -105.187 TC 50 6 9 48
1971280N11270 1971 133 EP MM PRISCILLA 1971-10-12 18:00:00 MX 22.1000 -104.800 40 hurdat_epa main 0 0 O________O____ hurdat_epa EP161971 22.1000 -104.800 TS 40 0 22.1000 -104.800 40 6 10 56
1971280N11270 1971 133 EP MM PRISCILLA 1971-10-12 21:00:00 MX 22.3579 -104.325 main 0 0 P________P____ EP161971 22.3579 -104.325 TS 32 -1 22.3579 -104.325 32 6 11 62
1971280N11270 1971 133 EP MM PRISCILLA 1971-10-13 00:00:00 MX 22.6000 -103.800 25 hurdat_epa main 0 O________O____ hurdat_epa EP161971 22.6000 -103.800 TD 25 -1 22.6000 -103.800 25 11 63

IBTrACS Databaseについて

本データベースは、米国NOAAが公開する1842年以降の世界の熱帯低気圧のベストトラックデータアーカイブInternational Best Track Archive for Climate Stewardship (IBTrACS)を、ウェブで閲覧しやすい形式に変換したものです。

最終更新日:2021-10-21